createdAt,value
2022-11-04T00:00:31.711Z,25.80
2022-11-04T00:01:35.853Z,25.80
2022-11-04T00:02:40.255Z,25.80
2022-11-04T00:03:42.515Z,25.80
2022-11-04T00:04:45.574Z,25.80
2022-11-04T00:05:47.634Z,25.80
2022-11-04T00:06:50.958Z,25.80
2022-11-04T00:08:11.615Z,25.80
2022-11-04T00:09:18.176Z,25.80
2022-11-04T00:10:40.365Z,25.80
2022-11-04T00:12:00.749Z,25.80
2022-11-04T00:13:02.795Z,25.70
2022-11-04T00:14:08.084Z,25.80
2022-11-04T00:15:28.723Z,25.80
2022-11-04T00:16:49.324Z,25.80
2022-11-04T00:17:53.689Z,25.80
2022-11-04T00:18:56.007Z,25.70
2022-11-04T00:20:16.415Z,25.80
2022-11-04T00:21:37.026Z,25.80
2022-11-04T00:23:07.451Z,25.80
2022-11-04T00:24:31.260Z,25.70
2022-11-04T00:25:51.994Z,25.70
2022-11-04T00:27:12.362Z,25.70
2022-11-04T00:28:34.871Z,25.70
2022-11-04T00:29:37.923Z,25.70
2022-11-04T00:30:40.989Z,25.70
2022-11-04T00:32:01.358Z,25.70
2022-11-04T00:33:23.442Z,25.70
2022-11-04T00:34:26.437Z,25.70
2022-11-04T00:35:28.510Z,25.70
2022-11-04T00:36:31.511Z,25.70
2022-11-04T00:37:36.822Z,25.70
2022-11-04T00:38:39.838Z,25.70
2022-11-04T00:39:41.948Z,25.70
2022-11-04T00:40:45.262Z,25.70
2022-11-04T00:41:47.332Z,25.70
2022-11-04T00:42:50.409Z,25.70
2022-11-04T00:43:53.008Z,25.70
2022-11-04T00:44:56.006Z,25.70
2022-11-04T00:45:58.066Z,25.70
2022-11-04T00:47:01.086Z,25.70
2022-11-04T00:48:05.347Z,25.70
2022-11-04T00:49:10.913Z,25.70
2022-11-04T00:50:12.939Z,25.70
2022-11-04T00:51:16.394Z,25.70
2022-11-04T00:52:18.541Z,25.70
2022-11-04T00:53:21.543Z,25.70
2022-11-04T00:54:23.608Z,25.70
2022-11-04T00:55:26.618Z,25.70
2022-11-04T00:56:28.672Z,25.70
2022-11-04T00:57:31.919Z,25.70
2022-11-04T00:58:33.940Z,25.70
2022-11-04T00:59:37.115Z,25.70
2022-11-04T01:00:39.555Z,25.70
2022-11-04T01:01:43.448Z,25.70
2022-11-04T01:02:45.837Z,25.80
2022-11-04T01:03:53.018Z,25.70
2022-11-04T01:04:55.054Z,25.70
2022-11-04T01:05:59.544Z,25.70
2022-11-04T01:07:02.215Z,25.70
2022-11-04T01:08:05.859Z,25.70
2022-11-04T01:09:09.249Z,25.70
2022-11-04T01:10:13.288Z,25.70
2022-11-04T01:11:15.501Z,25.80
2022-11-04T01:12:18.615Z,25.70
2022-11-04T01:13:20.655Z,25.70
2022-11-04T01:14:24.377Z,25.70
2022-11-04T01:15:26.712Z,25.70
2022-11-04T01:16:30.455Z,25.70
2022-11-04T01:17:32.543Z,25.70
2022-11-04T01:18:36.662Z,25.70
2022-11-04T01:19:40.130Z,25.70
2022-11-04T01:20:43.142Z,25.70
2022-11-04T01:21:45.166Z,25.70
2022-11-04T01:22:48.207Z,25.70
2022-11-04T01:23:50.254Z,25.70
2022-11-04T01:24:53.292Z,25.70
2022-11-04T01:25:55.391Z,25.70
2022-11-04T01:26:58.456Z,25.70
2022-11-04T01:28:00.481Z,25.70
2022-11-04T01:29:03.519Z,25.70
2022-11-04T01:30:07.263Z,25.70
2022-11-04T01:31:13.089Z,25.70
2022-11-04T01:32:15.125Z,25.70
2022-11-04T01:33:18.314Z,25.70
2022-11-04T01:34:24.546Z,25.70
2022-11-04T01:35:28.963Z,25.70
2022-11-04T01:36:31.012Z,25.70
2022-11-04T01:37:34.301Z,25.60
2022-11-04T01:38:36.757Z,25.70
2022-11-04T01:39:39.739Z,25.70
2022-11-04T01:40:42.112Z,25.70
2022-11-04T01:41:45.185Z,25.70
2022-11-04T01:42:47.210Z,25.70
2022-11-04T01:43:52.821Z,25.70
2022-11-04T01:44:57.412Z,25.70
2022-11-04T01:46:03.698Z,25.70
2022-11-04T01:47:05.835Z,25.70
2022-11-04T01:48:19.090Z,25.70
2022-11-04T01:49:28.519Z,25.70
2022-11-04T01:50:35.950Z,25.70
2022-11-04T01:51:42.635Z,25.70
2022-11-04T01:52:51.782Z,25.70
2022-11-04T01:53:57.646Z,25.70
2022-11-04T01:55:07.874Z,25.70
2022-11-04T01:56:14.368Z,25.70
2022-11-04T01:57:24.584Z,25.70
2022-11-04T01:58:31.926Z,25.70
2022-11-04T01:59:40.283Z,25.70
2022-11-04T02:00:44.695Z,25.70
2022-11-04T02:01:48.362Z,25.70
2022-11-04T02:02:59.140Z,25.60
2022-11-04T02:04:22.903Z,25.70
2022-11-04T02:05:24.956Z,25.70
2022-11-04T02:06:29.529Z,25.60
2022-11-04T02:07:32.605Z,25.60
2022-11-04T02:08:36.508Z,25.60
2022-11-04T02:09:41.323Z,25.60
2022-11-04T02:10:59.310Z,25.70
2022-11-04T02:12:20.460Z,25.60
2022-11-04T02:13:22.638Z,25.60
2022-11-04T02:14:24.962Z,25.70
2022-11-04T02:15:39.024Z,25.60
2022-11-04T02:16:48.366Z,25.60
2022-11-04T02:18:26.173Z,25.60
2022-11-04T02:19:54.654Z,25.60
2022-11-04T02:21:16.692Z,25.60
2022-11-04T02:22:51.381Z,25.60
2022-11-04T02:24:16.294Z,25.60
2022-11-04T02:25:37.683Z,25.60
2022-11-04T02:27:12.841Z,25.60
2022-11-04T02:28:47.006Z,25.60
2022-11-04T02:30:10.280Z,25.60
2022-11-04T02:31:20.953Z,25.60
2022-11-04T02:32:35.673Z,25.50
2022-11-04T02:33:48.824Z,25.50
2022-11-04T02:35:02.018Z,25.60
2022-11-04T02:36:12.126Z,25.60
2022-11-04T02:37:27.956Z,25.50
2022-11-04T02:38:38.923Z,25.60
2022-11-04T02:39:52.765Z,25.60
2022-11-04T02:41:08.158Z,25.60
2022-11-04T02:42:20.159Z,25.60
2022-11-04T02:43:29.462Z,25.60
2022-11-04T02:44:35.940Z,25.60
2022-11-04T02:45:45.614Z,25.60
2022-11-04T02:46:53.309Z,25.60
2022-11-04T02:48:05.081Z,25.60
2022-11-04T02:49:15.716Z,25.60
2022-11-04T02:50:27.163Z,25.60
2022-11-04T02:51:36.737Z,25.60
2022-11-04T02:52:51.430Z,25.60
2022-11-04T02:54:04.650Z,25.60
2022-11-04T02:55:14.153Z,25.60
2022-11-04T02:56:22.190Z,25.60
2022-11-04T02:57:30.292Z,25.60
2022-11-04T02:58:38.963Z,25.60
2022-11-04T02:59:46.132Z,25.60
2022-11-04T03:00:53.565Z,25.60
2022-11-04T03:01:59.226Z,25.60
2022-11-04T03:03:11.661Z,25.60
2022-11-04T03:04:18.709Z,25.60
2022-11-04T03:05:28.533Z,25.60
2022-11-04T03:06:33.594Z,25.60
2022-11-04T03:07:41.980Z,25.50
2022-11-04T03:08:49.117Z,25.50
2022-11-04T03:10:01.980Z,25.60
2022-11-04T03:11:11.249Z,25.50
2022-11-04T03:12:21.219Z,25.50
2022-11-04T03:13:32.836Z,25.50
2022-11-04T03:14:41.748Z,25.60
2022-11-04T03:15:53.035Z,25.50
2022-11-04T03:17:01.707Z,25.50
2022-11-04T03:18:16.534Z,25.50
2022-11-04T03:19:29.105Z,25.50
2022-11-04T03:20:32.574Z,25.50
2022-11-04T03:21:52.154Z,25.50
2022-11-04T03:22:59.739Z,25.50
2022-11-04T03:24:05.721Z,25.50
2022-11-04T03:25:09.989Z,25.50
2022-11-04T03:26:22.114Z,25.50
2022-11-04T03:27:31.710Z,25.50
2022-11-04T03:28:44.733Z,25.50
2022-11-04T03:29:57.544Z,25.50
2022-11-04T03:31:05.962Z,25.60
2022-11-04T03:32:17.823Z,25.50
2022-11-04T03:33:29.511Z,25.60
2022-11-04T03:34:32.027Z,25.60
2022-11-04T03:35:35.079Z,25.60
2022-11-04T03:36:37.274Z,25.60
2022-11-04T03:37:40.499Z,25.60
2022-11-04T03:38:43.108Z,25.60
2022-11-04T03:39:46.393Z,25.60
2022-11-04T03:40:48.985Z,25.60
2022-11-04T03:41:56.582Z,25.60
2022-11-04T03:43:05.525Z,25.60
2022-11-04T03:44:08.795Z,25.60
2022-11-04T03:45:13.841Z,25.50
2022-11-04T03:46:17.244Z,25.60
2022-11-04T03:47:23.042Z,25.60
2022-11-04T03:48:25.506Z,25.50
2022-11-04T03:49:29.333Z,25.60
2022-11-04T03:50:33.648Z,25.50
2022-11-04T03:51:36.691Z,25.50
2022-11-04T03:52:39.461Z,25.50
2022-11-04T03:53:42.642Z,25.60
2022-11-04T03:54:46.230Z,25.50
2022-11-04T03:56:06.248Z,25.50
2022-11-04T03:57:35.540Z,25.50
2022-11-04T03:58:50.557Z,25.50
2022-11-04T04:00:09.144Z,25.50
2022-11-04T04:01:28.643Z,25.50
2022-11-04T04:02:54.838Z,25.50
2022-11-04T04:04:06.982Z,25.50
2022-11-04T04:05:18.912Z,25.50
2022-11-04T04:06:29.316Z,25.50
2022-11-04T04:10:28.641Z,25.50
2022-11-04T04:11:42.458Z,25.50
2022-11-04T04:12:45.447Z,25.50
2022-11-04T04:14:01.870Z,25.50
2022-11-04T04:15:13.513Z,25.50
2022-11-04T04:16:24.730Z,25.50
2022-11-04T04:17:37.938Z,25.50
2022-11-04T04:18:47.886Z,25.50
2022-11-04T04:19:57.328Z,25.50
2022-11-04T04:21:06.031Z,25.50
2022-11-04T04:22:15.478Z,25.50
2022-11-04T04:23:43.304Z,25.50
2022-11-04T04:25:08.594Z,25.50
2022-11-04T04:26:32.523Z,25.50
2022-11-04T04:27:37.402Z,25.50
2022-11-04T04:28:42.112Z,25.50
2022-11-04T04:29:47.668Z,25.50
2022-11-04T04:30:50.746Z,25.50
2022-11-04T04:31:58.699Z,25.50
2022-11-04T04:33:09.862Z,25.50
2022-11-04T04:34:12.304Z,25.50
2022-11-04T04:35:34.037Z,25.50
2022-11-04T04:36:47.250Z,25.50
2022-11-04T04:37:55.065Z,25.50
2022-11-04T04:39:18.453Z,25.50
2022-11-04T04:40:44.578Z,25.50
2022-11-04T04:42:07.510Z,25.60
2022-11-04T04:43:33.707Z,25.60
2022-11-04T04:44:59.521Z,25.50
2022-11-04T04:46:03.908Z,25.60
2022-11-04T04:47:08.677Z,25.60
2022-11-04T04:48:14.403Z,25.50
2022-11-04T04:49:16.471Z,25.50
2022-11-04T04:50:22.729Z,25.50
2022-11-04T04:51:25.521Z,25.50
2022-11-04T04:52:32.867Z,25.60
2022-11-04T04:53:35.931Z,25.60
2022-11-04T04:54:38.004Z,25.50
2022-11-04T04:55:41.979Z,25.50
2022-11-04T04:56:44.221Z,25.50
2022-11-04T04:57:47.665Z,25.50
2022-11-04T04:58:49.768Z,25.50
2022-11-04T04:59:52.918Z,25.50
2022-11-04T05:00:56.002Z,25.50
2022-11-04T05:01:58.220Z,25.50
2022-11-04T05:03:01.365Z,25.50
2022-11-04T05:04:05.073Z,25.50
2022-11-04T05:05:09.141Z,25.60
2022-11-04T05:06:11.257Z,25.60
2022-11-04T05:07:14.477Z,25.50
2022-11-04T05:08:17.589Z,25.50
2022-11-04T05:09:19.658Z,25.50
2022-11-04T05:10:23.179Z,25.50
2022-11-04T05:11:27.236Z,25.50
2022-11-04T05:12:51.038Z,25.50
2022-11-04T05:13:53.341Z,25.50
2022-11-04T05:14:56.366Z,25.50
2022-11-04T05:16:03.347Z,25.50
2022-11-04T05:17:06.487Z,25.50
2022-11-04T05:18:08.778Z,25.50
2022-11-04T05:19:13.351Z,25.50
2022-11-04T05:20:15.608Z,25.50
2022-11-04T05:21:19.206Z,25.50
2022-11-04T05:22:21.243Z,25.50
2022-11-04T05:23:24.294Z,25.50
2022-11-04T05:24:26.516Z,25.50
2022-11-04T05:25:29.610Z,25.50
2022-11-04T05:26:31.673Z,25.50
2022-11-04T05:27:34.790Z,25.50
2022-11-04T05:28:36.853Z,25.50
2022-11-04T05:29:39.888Z,25.60
2022-11-04T05:30:42.189Z,25.50
2022-11-04T05:31:45.210Z,25.60
2022-11-04T05:32:47.283Z,25.60
2022-11-04T05:33:50.357Z,25.60
2022-11-04T05:34:53.797Z,25.60
2022-11-04T05:35:56.923Z,25.60
2022-11-04T05:36:59.925Z,25.60
2022-11-04T05:38:03.245Z,25.70
2022-11-04T05:39:06.813Z,25.60
2022-11-04T05:40:10.982Z,25.60
2022-11-04T05:41:25.681Z,25.70
2022-11-04T05:42:29.491Z,25.70
2022-11-04T05:43:31.737Z,25.70
2022-11-04T05:44:34.781Z,25.70
2022-11-04T05:45:36.848Z,25.70
2022-11-04T05:46:39.951Z,25.70
2022-11-04T05:47:42.012Z,25.70
2022-11-04T05:48:45.079Z,25.60
2022-11-04T05:49:47.154Z,25.60
2022-11-04T05:50:51.563Z,25.60
2022-11-04T05:51:53.625Z,25.60
2022-11-04T05:52:59.054Z,25.60
2022-11-04T05:54:01.706Z,25.60
2022-11-04T05:55:05.198Z,25.60
2022-11-04T05:56:08.220Z,25.60
2022-11-04T06:40:12.106Z,15.00
2022-11-04T06:41:18.080Z,15.00
2022-11-04T06:42:20.203Z,14.90
2022-11-04T06:43:23.293Z,14.90
2022-11-04T06:44:25.499Z,14.80
2022-11-04T06:45:28.585Z,14.80
2022-11-04T06:46:36.067Z,14.70
2022-11-04T06:47:39.149Z,14.70
2022-11-04T06:48:41.277Z,14.70
2022-11-04T06:49:44.360Z,14.60
2022-11-04T06:50:46.627Z,14.60
2022-11-04T06:51:49.955Z,14.60
2022-11-04T06:52:52.038Z,14.60
2022-11-04T06:53:55.476Z,14.60
2022-11-04T06:54:57.623Z,14.60
2022-11-04T06:56:06.205Z,14.50
2022-11-04T06:57:11.770Z,14.50
2022-11-04T06:58:14.960Z,14.50
2022-11-04T06:59:20.383Z,14.50
2022-11-04T07:00:23.709Z,14.50
2022-11-04T07:01:29.960Z,14.50
2022-11-04T07:02:32.251Z,14.50
2022-11-04T07:03:35.532Z,14.40
2022-11-04T07:04:38.001Z,14.40
2022-11-04T07:05:41.153Z,14.40
2022-11-04T07:06:45.392Z,14.40
2022-11-04T07:07:47.513Z,14.40
2022-11-04T07:08:53.027Z,14.30
2022-11-04T07:09:56.113Z,14.30
2022-11-04T07:10:58.199Z,14.30
2022-11-04T07:12:01.311Z,14.30
2022-11-04T07:13:04.766Z,14.30
2022-11-04T07:14:08.858Z,14.30
2022-11-04T07:15:12.231Z,14.30
2022-11-04T07:16:15.697Z,14.30
2022-11-04T07:17:18.493Z,14.30
2022-11-04T07:18:21.635Z,14.30
2022-11-04T07:19:23.700Z,14.30
2022-11-04T07:20:26.861Z,14.30
2022-11-04T07:21:29.975Z,14.30
2022-11-04T07:22:32.275Z,14.30
2022-11-04T07:23:36.263Z,14.20
2022-11-04T07:24:39.510Z,14.30
2022-11-04T07:25:41.631Z,14.20
2022-11-04T07:26:44.775Z,14.30
2022-11-04T07:27:46.917Z,14.30
2022-11-04T07:28:51.418Z,14.20
2022-11-04T07:29:53.509Z,14.30
2022-11-04T07:30:58.112Z,14.20
2022-11-04T07:32:01.200Z,14.20
2022-11-04T07:33:03.409Z,14.20
2022-11-04T07:34:06.717Z,14.20
2022-11-04T07:35:10.693Z,14.20
2022-11-04T07:36:13.455Z,14.20
2022-11-04T07:37:16.579Z,14.20
2022-11-04T07:38:18.714Z,14.20
2022-11-04T07:39:21.891Z,14.20
2022-11-04T07:40:24.104Z,14.20
2022-11-04T07:41:27.407Z,14.20
2022-11-04T07:42:29.484Z,14.20
2022-11-04T07:43:32.610Z,14.20
2022-11-04T07:44:36.155Z,14.20
2022-11-04T07:45:39.382Z,14.30
2022-11-04T07:46:42.498Z,14.30
2022-11-04T07:47:44.649Z,14.30
2022-11-04T07:48:47.796Z,14.30
2022-11-04T07:49:50.951Z,14.30
2022-11-04T07:50:55.651Z,14.30
2022-11-04T07:51:58.799Z,14.30
2022-11-04T07:53:01.481Z,14.30
2022-11-04T07:54:04.784Z,14.30
2022-11-04T07:55:07.696Z,14.30
2022-11-04T07:56:13.796Z,14.30
2022-11-04T07:57:15.976Z,14.30
2022-11-04T07:58:19.371Z,14.30
2022-11-04T07:59:21.554Z,14.30
2022-11-04T08:00:26.129Z,14.40
2022-11-04T08:01:28.292Z,14.40
2022-11-04T08:02:35.136Z,14.50
2022-11-04T08:03:38.727Z,14.50
2022-11-04T08:04:41.849Z,14.60
2022-11-04T08:05:43.957Z,14.50
2022-11-04T08:06:47.142Z,14.60
2022-11-04T08:07:49.330Z,14.60
2022-11-04T08:08:54.084Z,14.60
2022-11-04T08:09:57.398Z,14.70
2022-11-04T08:11:01.653Z,14.70
2022-11-04T08:12:06.338Z,14.70
2022-11-04T08:13:08.554Z,14.70
2022-11-04T08:14:11.912Z,14.70
2022-11-04T08:15:14.057Z,14.70
2022-11-04T08:16:20.808Z,14.70
2022-11-04T08:17:22.950Z,14.70
2022-11-04T08:18:26.037Z,14.70
2022-11-04T08:19:29.321Z,14.70
2022-11-04T08:20:31.425Z,14.70
2022-11-04T08:21:36.503Z,14.70
2022-11-04T08:22:39.096Z,14.80
2022-11-04T08:23:42.344Z,14.80
2022-11-04T08:24:47.211Z,14.80
2022-11-04T08:25:49.347Z,14.80
2022-11-04T08:26:52.523Z,14.80
2022-11-04T08:28:00.571Z,14.80
2022-11-04T08:29:07.985Z,14.80
2022-11-04T08:30:11.174Z,14.80
2022-11-04T08:31:19.390Z,14.90
2022-11-04T08:32:22.515Z,14.90
2022-11-04T08:33:25.563Z,14.90
2022-11-04T08:34:28.739Z,15.00
2022-11-04T08:35:31.393Z,15.00
2022-11-04T08:36:37.568Z,15.00
2022-11-04T08:37:39.834Z,15.00
2022-11-04T08:38:43.080Z,15.00
2022-11-04T08:39:46.209Z,15.00
2022-11-04T08:40:48.422Z,15.00
2022-11-04T08:41:53.483Z,15.00
2022-11-04T08:42:55.722Z,15.00
2022-11-04T08:44:00.983Z,15.00
2022-11-04T08:45:04.315Z,15.00
2022-11-04T08:46:08.749Z,15.00
2022-11-04T08:47:13.312Z,15.00
2022-11-04T08:48:16.512Z,15.00
2022-11-04T08:49:21.531Z,15.00
2022-11-04T08:50:27.748Z,15.00
2022-11-04T08:51:34.568Z,15.00
2022-11-04T08:52:37.704Z,15.00
2022-11-04T08:53:39.960Z,15.00
2022-11-04T08:54:44.175Z,15.00
2022-11-04T08:55:46.641Z,15.00
2022-11-04T08:56:49.748Z,15.00
2022-11-04T08:57:53.023Z,15.00
2022-11-04T08:58:58.162Z,15.00
2022-11-04T09:00:00.553Z,15.00
2022-11-04T09:01:04.943Z,15.00
2022-11-04T09:02:08.590Z,15.00
2022-11-04T09:03:12.501Z,15.00
2022-11-04T09:04:15.939Z,15.00
2022-11-04T09:05:19.398Z,15.10
2022-11-04T09:06:24.043Z,15.10
2022-11-04T09:07:27.208Z,15.10
2022-11-04T09:08:29.316Z,15.10
2022-11-04T09:09:32.444Z,15.10
2022-11-04T09:10:34.620Z,15.20
2022-11-04T09:11:40.448Z,15.20
2022-11-04T09:12:43.222Z,15.20
2022-11-04T09:13:46.413Z,15.30
2022-11-04T09:14:49.503Z,15.30
2022-11-04T09:15:51.729Z,15.30
2022-11-04T09:16:56.788Z,15.40
2022-11-04T09:17:58.863Z,15.40
2022-11-04T09:19:03.755Z,15.40
2022-11-04T09:20:07.006Z,15.50
2022-11-04T09:21:11.807Z,15.50
2022-11-04T09:22:14.970Z,15.60
2022-11-04T09:23:17.105Z,15.60
2022-11-04T09:24:20.200Z,15.60
2022-11-04T09:25:22.341Z,15.70
2022-11-04T09:26:26.250Z,15.70
2022-11-04T09:27:28.378Z,15.70
2022-11-04T09:28:31.524Z,15.70
2022-11-04T09:29:36.345Z,15.70
2022-11-04T09:30:39.760Z,15.80
2022-11-04T09:31:43.205Z,15.80
2022-11-04T09:32:51.511Z,15.80
2022-11-04T09:33:56.690Z,15.80
2022-11-04T09:35:00.171Z,15.80
2022-11-04T09:36:03.320Z,15.80
2022-11-04T09:37:05.703Z,15.80
2022-11-04T09:38:08.852Z,15.80
2022-11-04T09:39:11.255Z,15.80
2022-11-04T09:40:18.831Z,15.80
2022-11-04T09:41:50.924Z,15.80
2022-11-04T09:43:15.589Z,15.80
2022-11-04T09:44:24.516Z,15.80
2022-11-04T09:45:30.553Z,15.80
2022-11-04T09:46:34.786Z,15.80
2022-11-04T09:47:42.028Z,15.80
2022-11-04T09:48:48.465Z,15.80
2022-11-04T09:49:58.196Z,15.80
2022-11-04T09:51:06.600Z,15.80
2022-11-04T09:52:19.785Z,15.90
2022-11-04T09:53:30.330Z,15.90
2022-11-04T09:54:47.215Z,16.00
2022-11-04T09:55:56.763Z,16.00
2022-11-04T09:57:04.488Z,16.00
2022-11-04T09:58:14.574Z,16.00
2022-11-04T09:59:24.441Z,16.00
2022-11-04T10:00:33.918Z,16.00
2022-11-04T10:01:45.653Z,16.00
2022-11-04T10:03:00.731Z,16.00
2022-11-04T10:04:21.986Z,16.00
2022-11-04T10:05:40.741Z,16.10
2022-11-04T10:07:04.843Z,16.20
2022-11-04T10:08:36.707Z,16.20
2022-11-04T10:09:55.656Z,16.30
2022-11-04T10:11:07.401Z,16.30
2022-11-04T10:12:25.292Z,16.40
2022-11-04T10:13:45.415Z,16.50
2022-11-04T10:15:16.587Z,16.50
2022-11-04T10:16:48.025Z,16.60
2022-11-04T10:18:08.723Z,16.70
2022-11-04T10:19:36.690Z,16.70
2022-11-04T10:20:52.525Z,16.80
2022-11-04T10:22:05.798Z,16.80
2022-11-04T10:23:21.623Z,16.70
2022-11-04T10:24:34.941Z,16.80
2022-11-04T10:25:46.884Z,16.80
2022-11-04T10:27:00.713Z,16.80
2022-11-04T10:28:05.971Z,16.80
2022-11-04T10:29:16.600Z,16.80
2022-11-04T10:30:21.954Z,16.80
2022-11-04T10:31:25.537Z,16.80
2022-11-04T10:32:34.346Z,16.80
2022-11-04T10:33:43.661Z,16.90
2022-11-04T10:34:55.057Z,16.90
2022-11-04T10:36:03.015Z,16.90
2022-11-04T10:37:12.115Z,16.90
2022-11-04T10:38:20.804Z,17.00
2022-11-04T10:39:29.965Z,17.00
2022-11-04T10:40:38.817Z,17.00
2022-11-04T10:41:42.328Z,16.90
2022-11-04T10:42:44.675Z,16.90
2022-11-04T10:43:48.745Z,16.80
2022-11-04T10:44:54.018Z,16.90
2022-11-04T10:46:12.283Z,16.90
2022-11-04T10:47:31.461Z,17.00
2022-11-04T10:48:44.702Z,17.00
2022-11-04T10:50:29.943Z,17.20
2022-11-04T10:51:32.894Z,17.30
2022-11-04T10:52:37.883Z,17.30
2022-11-04T10:53:41.421Z,17.40
2022-11-04T10:54:47.264Z,17.50
2022-11-04T10:56:00.488Z,17.50
2022-11-04T10:57:02.960Z,17.60
2022-11-04T10:58:19.378Z,17.60
2022-11-04T10:59:28.682Z,17.70
2022-11-04T11:00:36.181Z,17.70
2022-11-04T11:01:39.499Z,17.70
2022-11-04T11:02:47.545Z,17.70
2022-11-04T11:03:50.729Z,17.80
2022-11-04T11:05:13.021Z,17.70
2022-11-04T11:06:25.039Z,17.70
2022-11-04T11:07:39.429Z,17.70
2022-11-04T11:08:45.218Z,17.70
2022-11-04T11:09:54.729Z,17.70
2022-11-04T11:10:57.648Z,17.70
2022-11-04T11:12:09.854Z,17.70
2022-11-04T11:13:26.249Z,17.70
2022-11-04T11:14:38.687Z,17.70
2022-11-04T11:15:42.232Z,17.60
2022-11-04T11:16:46.279Z,17.60
2022-11-04T11:20:08.162Z,17.50
2022-11-04T11:21:13.756Z,17.40
2022-11-04T11:22:36.209Z,17.40
2022-11-04T11:23:43.979Z,17.40
2022-11-04T11:24:46.233Z,17.40
2022-11-04T11:25:52.453Z,17.40
2022-11-04T11:26:59.105Z,17.40
2022-11-04T11:28:05.035Z,17.40
2022-11-04T11:29:13.189Z,17.30
2022-11-04T11:30:25.750Z,17.30
2022-11-04T11:31:38.392Z,17.30
2022-11-04T11:32:44.126Z,17.30
2022-11-04T11:33:52.841Z,17.30
2022-11-04T11:35:01.747Z,17.30
2022-11-04T11:36:12.128Z,17.30
2022-11-04T11:37:23.814Z,17.20
2022-11-04T11:38:29.586Z,17.30
2022-11-04T11:39:36.723Z,17.30
2022-11-04T11:40:51.977Z,17.30
2022-11-04T11:42:06.280Z,17.30
2022-11-04T11:43:24.639Z,17.30
2022-11-04T11:44:33.052Z,17.40
2022-11-04T11:45:37.430Z,17.40
2022-11-04T11:46:42.603Z,17.40
2022-11-04T11:47:44.716Z,17.40
2022-11-04T11:48:53.440Z,17.50
2022-11-04T11:50:08.201Z,17.40
2022-11-04T11:51:15.877Z,17.50
2022-11-04T11:52:33.584Z,17.50
2022-11-04T11:53:39.796Z,17.50
2022-11-04T11:54:49.196Z,17.50
2022-11-04T11:56:05.941Z,17.60
2022-11-04T11:57:27.605Z,17.60
2022-11-04T12:01:51.136Z,17.70
2022-11-04T12:03:01.504Z,17.60
2022-11-04T12:10:49.889Z,17.80
2022-11-04T12:12:09.705Z,17.80
2022-11-04T12:13:25.114Z,17.90
2022-11-04T12:14:48.728Z,17.90
2022-11-04T12:16:14.816Z,17.90
2022-11-04T12:17:32.001Z,18.00
2022-11-04T12:18:58.050Z,18.00
2022-11-04T12:20:20.061Z,18.10
2022-11-04T12:21:33.436Z,18.10
2022-11-04T12:22:44.120Z,18.20
2022-11-04T12:23:54.952Z,18.30
2022-11-04T12:25:17.587Z,18.50
2022-11-04T12:26:35.897Z,18.60
2022-11-04T12:27:47.625Z,18.70
2022-11-04T12:29:10.215Z,18.80
2022-11-04T12:30:22.478Z,18.90
2022-11-04T12:31:42.749Z,19.00
2022-11-04T12:32:58.977Z,19.00
2022-11-04T12:34:15.440Z,19.10
2022-11-04T12:35:33.812Z,19.10
2022-11-04T12:36:55.858Z,19.00
2022-11-04T12:38:25.148Z,19.00
2022-11-04T12:39:53.614Z,19.00
2022-11-04T12:42:47.170Z,19.00
2022-11-04T12:44:04.458Z,19.00
2022-11-04T12:45:25.264Z,18.90
2022-11-04T12:46:38.579Z,18.90
2022-11-04T12:47:45.913Z,19.00
2022-11-04T12:49:24.879Z,19.00
2022-11-04T12:50:53.375Z,19.00
2022-11-04T12:52:11.441Z,18.90
2022-11-04T12:53:44.840Z,18.90
2022-11-04T12:55:04.297Z,19.00
2022-11-04T12:56:09.834Z,19.00
2022-11-04T12:57:23.780Z,19.00
2022-11-04T12:58:52.120Z,19.10
2022-11-04T13:00:11.617Z,19.10
2022-11-04T13:01:20.435Z,19.20
2022-11-04T13:02:28.591Z,19.20
2022-11-04T13:03:46.919Z,19.20
2022-11-04T13:04:59.493Z,19.20
2022-11-04T13:06:07.707Z,19.30
2022-11-04T13:07:20.990Z,19.20
2022-11-04T13:08:29.715Z,19.30
2022-11-04T13:09:37.897Z,19.20
2022-11-04T13:10:47.382Z,19.20
2022-11-04T13:11:56.502Z,19.20
2022-11-04T13:13:02.039Z,19.10
2022-11-04T13:14:13.569Z,19.10
2022-11-04T13:15:20.291Z,19.10
2022-11-04T13:16:23.942Z,19.00
2022-11-04T13:17:31.909Z,18.90
2022-11-04T13:18:39.994Z,18.90
2022-11-04T13:19:51.720Z,18.90
2022-11-04T13:21:04.141Z,18.80
2022-11-04T13:22:11.999Z,18.70
2022-11-04T13:23:23.235Z,18.70
2022-11-04T13:24:31.865Z,18.70
2022-11-04T13:25:41.661Z,18.70
2022-11-04T13:26:45.557Z,18.70
2022-11-04T13:27:49.657Z,18.60
2022-11-04T13:29:05.865Z,18.60
2022-11-04T13:30:23.038Z,18.70
2022-11-04T13:31:38.372Z,18.70
2022-11-04T13:32:49.983Z,18.70
2022-11-04T13:34:02.256Z,18.60
2022-11-04T13:35:20.323Z,18.70
2022-11-04T13:36:34.763Z,18.70
2022-11-04T13:37:45.399Z,18.70
2022-11-04T13:38:56.073Z,18.70
2022-11-04T13:40:03.909Z,18.70
2022-11-04T13:41:29.361Z,18.70
2022-11-04T13:43:20.812Z,18.70
2022-11-04T13:44:27.846Z,18.80
2022-11-04T13:45:32.435Z,18.80
2022-11-04T13:46:35.650Z,18.70
2022-11-04T13:47:48.523Z,18.70
2022-11-04T13:49:01.402Z,18.70
2022-11-04T13:50:05.611Z,18.70
2022-11-04T13:51:11.944Z,18.60
2022-11-04T13:52:16.140Z,18.60
2022-11-04T13:53:18.288Z,18.60
2022-11-04T13:54:32.820Z,18.60
2022-11-04T13:55:39.237Z,18.60
2022-11-04T13:56:42.524Z,18.60
2022-11-04T13:57:55.565Z,18.60
2022-11-04T13:59:02.127Z,18.60
2022-11-04T14:00:25.466Z,18.50
2022-11-04T14:01:31.462Z,18.50
2022-11-04T14:02:41.697Z,18.50
2022-11-04T14:03:55.530Z,18.50
2022-11-04T14:04:58.686Z,18.50
2022-11-04T14:06:08.500Z,18.40
2022-11-04T14:07:14.412Z,18.40
2022-11-04T14:08:17.556Z,18.40
2022-11-04T14:09:59.548Z,18.40
2022-11-04T14:11:13.984Z,18.40
2022-11-04T14:12:35.545Z,18.40
2022-11-04T14:14:05.291Z,18.40
2022-11-04T14:15:38.157Z,18.40
2022-11-04T14:16:45.832Z,18.40
2022-11-04T14:18:09.072Z,18.40
2022-11-04T14:19:49.333Z,18.40
2022-11-04T14:21:07.760Z,18.40
2022-11-04T14:22:16.217Z,18.40
2022-11-04T14:23:25.173Z,18.40
2022-11-04T14:24:28.897Z,18.40
2022-11-04T14:25:38.315Z,18.40
2022-11-04T14:26:44.207Z,18.50
2022-11-04T14:27:49.784Z,18.50
2022-11-04T14:29:08.282Z,18.50
2022-11-04T14:30:34.992Z,18.50
2022-11-04T14:31:41.257Z,18.50
2022-11-04T14:32:45.228Z,18.50
2022-11-04T14:33:54.724Z,18.50
2022-11-04T14:35:04.246Z,18.50
2022-11-04T14:36:29.071Z,18.50
2022-11-04T14:37:38.662Z,18.40
2022-11-04T14:38:42.562Z,18.40
2022-11-04T14:39:46.128Z,18.40
2022-11-04T14:40:52.392Z,18.30
2022-11-04T14:41:59.151Z,18.30
2022-11-04T14:43:32.625Z,18.30
2022-11-04T14:44:45.719Z,18.30
2022-11-04T14:45:52.263Z,18.30
2022-11-04T14:47:00.733Z,18.30
2022-11-04T14:48:16.065Z,18.30
2022-11-04T14:49:41.503Z,18.30
2022-11-04T14:50:48.709Z,18.30
2022-11-04T14:51:52.345Z,18.20
2022-11-04T14:53:00.097Z,18.20
2022-11-04T14:54:09.259Z,18.20
2022-11-04T14:55:18.055Z,18.20
2022-11-04T14:56:24.957Z,18.20
2022-11-04T14:57:35.712Z,18.10
2022-11-04T14:58:38.786Z,18.10
2022-11-04T14:59:42.542Z,18.10
2022-11-04T15:00:56.677Z,18.10
2022-11-04T15:01:59.216Z,18.10
2022-11-04T15:03:32.043Z,18.10
2022-11-04T15:04:36.759Z,18.10
2022-11-04T15:05:40.874Z,18.00
2022-11-04T15:06:59.203Z,18.10
2022-11-04T15:08:03.460Z,18.10
2022-11-04T15:09:21.779Z,18.00
2022-11-04T15:10:28.638Z,18.10
2022-11-04T15:11:49.365Z,18.00
2022-11-04T15:12:55.082Z,18.00
2022-11-04T15:13:59.044Z,18.00
2022-11-04T15:15:02.476Z,18.00
2022-11-04T15:16:12.141Z,18.00
2022-11-04T15:17:20.656Z,18.00
2022-11-04T15:18:34.676Z,18.00
2022-11-04T15:19:39.354Z,18.00
2022-11-04T15:20:49.987Z,18.00
2022-11-04T15:21:54.284Z,18.00
2022-11-04T15:23:01.304Z,18.10
2022-11-04T15:24:07.977Z,18.10
2022-11-04T15:25:12.850Z,18.00
2022-11-04T15:26:29.428Z,18.00
2022-11-04T15:27:36.490Z,18.00
2022-11-04T15:28:52.366Z,18.00
2022-11-04T15:29:57.118Z,17.90
2022-11-04T15:31:17.215Z,18.00
2022-11-04T15:32:24.497Z,17.90
2022-11-04T15:33:30.749Z,17.90
2022-11-04T15:34:36.785Z,17.90
2022-11-04T15:35:43.457Z,17.90
2022-11-04T15:36:47.302Z,17.80
2022-11-04T15:37:52.183Z,17.80
2022-11-04T15:39:04.782Z,17.80
2022-11-04T15:40:17.181Z,17.80
2022-11-04T15:41:42.177Z,17.80
2022-11-04T15:42:55.390Z,17.80
2022-11-04T15:43:59.286Z,17.80